Eagle Rock, Idaho
Current Conditions -  °F | °C
As of 9:53 AM on Thursday 18 Dec 2014 (Local Time) from KIDA Reporting Station
Broken Clouds Broken Clouds  
Wind Chill: 19°   Ceiling: 8000
Heat Index: 25°   Visibility: 10mi
Dew Point: 23°   Wind: 5mph
Humidity: 92%   Direction: 290°WNW
Pressure: 30.13"   Gusts: NA
Location:  43.5246°N, 112.143°W
Report Text: KIDA 181653Z 29004KT 10SM BKN080 M04/M05 A3013 RMK AO2 SLP249 I1000 T10391050
Loading
Personal Weather Stations






























Interactive Weather Map New forecast layout! Learn more

10-Day Weather Forecast

Advertisements
Track Severe Weather on mobile